Phoenix, Arizona
Traffic Map
Current Weather Conditions
Phoenix, Arizona
Scattered Clouds
Scattered Clouds
23°
Feels Like: 23°
Wind Chill: 23° Ceiling: Unl
Heat Index: 23° Visibility: 10mi
Dew Point: Wind: 3mph
Humidity: 33% Direction: ° ()
Pressure: 29.78in Gusts: 0mph
Raw Report DataKPHX 262151Z VRB03KT 10SM FEW050 SCT070 SCT095 23/06 A2978 RMK AO2 PK WND 36026/2057 WSHFT 2045 RAB01E12 SLP073 P0000 T02280056
Traffic Incident Summary
Active as of:
Severity:
Category:
InformationThere was an issue retrieving the traffic information for this location. Please try a different location or try again shortly.
Advertisements
Track Severe Weather on mobile